Terminal Aerodrome Forecast
Issued by NWS

Home | Current Version | Previous Version | Text Only | Print | Product List | Glossary On
Versions: 1 2 3 4 5 6 7 8 9 10 11 12 13 14 15 16 17 18
859
FTUS45 KRIW 270525
TAFCPR
TAF
KCPR 270525Z 2706/2806 21009KT P6SM VCSH SCT080 BKN100
     FM270800 20007KT P6SM SCT110
     FM272200 23011KT P6SM VCTS SCT060CB BKN090
     FM280400 11009KT P6SM VCSH BKN100=

USA.gov is the U.S. government's official web portal to all federal, state and local government web resources and services.